sensor_id;sensor_type;location;lat;lon;timestamp;temperature;humidity
38183;DHT22;23991;52.430;10.586;2023-04-29T00:01:56;13.30;86.70
38183;DHT22;23991;52.430;10.586;2023-04-29T00:04:26;13.30;86.80
38183;DHT22;23991;52.430;10.586;2023-04-29T00:06:52;13.30;86.80
38183;DHT22;23991;52.430;10.586;2023-04-29T00:09:17;13.30;87.00
38183;DHT22;23991;52.430;10.586;2023-04-29T00:11:43;13.30;87.00
38183;DHT22;23991;52.430;10.586;2023-04-29T00:14:08;13.30;87.10
38183;DHT22;23991;52.430;10.586;2023-04-29T00:16:34;13.30;87.00
38183;DHT22;23991;52.430;10.586;2023-04-29T00:19:00;13.30;87.00
38183;DHT22;23991;52.430;10.586;2023-04-29T00:21:25;13.30;87.10
38183;DHT22;23991;52.430;10.586;2023-04-29T00:23:52;13.20;87.10
38183;DHT22;23991;52.430;10.586;2023-04-29T00:26:17;13.20;87.10
38183;DHT22;23991;52.430;10.586;2023-04-29T00:28:43;13.20;87.00
38183;DHT22;23991;52.430;10.586;2023-04-29T00:31:08;13.10;87.00
38183;DHT22;23991;52.430;10.586;2023-04-29T00:33:35;13.20;86.90
38183;DHT22;23991;52.430;10.586;2023-04-29T00:36:00;13.10;86.90
38183;DHT22;23991;52.430;10.586;2023-04-29T00:38:26;13.20;87.00
38183;DHT22;23991;52.430;10.586;2023-04-29T00:40:52;13.20;87.10
38183;DHT22;23991;52.430;10.586;2023-04-29T00:43:17;13.10;87.00
38183;DHT22;23991;52.430;10.586;2023-04-29T00:45:43;13.10;87.10
38183;DHT22;23991;52.430;10.586;2023-04-29T00:48:10;13.10;87.00
38183;DHT22;23991;52.430;10.586;2023-04-29T00:50:35;13.10;87.10
38183;DHT22;23991;52.430;10.586;2023-04-29T00:53:01;13.10;87.10
38183;DHT22;23991;52.430;10.586;2023-04-29T00:55:28;13.20;87.00
38183;DHT22;23991;52.430;10.586;2023-04-29T00:57:54;13.10;87.10
38183;DHT22;23991;52.430;10.586;2023-04-29T01:00:21;13.10;87.10
38183;DHT22;23991;52.430;10.586;2023-04-29T01:02:48;13.10;87.10
38183;DHT22;23991;52.430;10.586;2023-04-29T01:05:14;13.10;87.10
38183;DHT22;23991;52.430;10.586;2023-04-29T01:07:51;13.10;87.00
38183;DHT22;23991;52.430;10.586;2023-04-29T01:10:26;13.10;87.00
38183;DHT22;23991;52.430;10.586;2023-04-29T01:13:06;13.10;87.00
38183;DHT22;23991;52.430;10.586;2023-04-29T01:15:46;13.10;87.00
38183;DHT22;23991;52.430;10.586;2023-04-29T01:18:20;13.10;87.10
38183;DHT22;23991;52.430;10.586;2023-04-29T01:20:49;13.10;86.90
38183;DHT22;23991;52.430;10.586;2023-04-29T01:23:15;13.00;86.80
38183;DHT22;23991;52.430;10.586;2023-04-29T01:25:41;13.10;86.80
38183;DHT22;23991;52.430;10.586;2023-04-29T01:31:01;13.00;86.80
38183;DHT22;23991;52.430;10.586;2023-04-29T01:34:01;13.00;86.80
38183;DHT22;23991;52.430;10.586;2023-04-29T01:36:52;13.00;86.80
38183;DHT22;23991;52.430;10.586;2023-04-29T01:39:26;13.00;86.80
38183;DHT22;23991;52.430;10.586;2023-04-29T01:41:58;13.00;86.80
38183;DHT22;23991;52.430;10.586;2023-04-29T01:44:28;13.00;86.80
38183;DHT22;23991;52.430;10.586;2023-04-29T01:46:56;13.00;86.60
38183;DHT22;23991;52.430;10.586;2023-04-29T01:49:26;12.90;86.70
38183;DHT22;23991;52.430;10.586;2023-04-29T01:51:52;12.90;86.80
38183;DHT22;23991;52.430;10.586;2023-04-29T01:54:18;12.90;86.90
38183;DHT22;23991;52.430;10.586;2023-04-29T01:56:43;12.90;86.90
38183;DHT22;23991;52.430;10.586;2023-04-29T01:59:09;12.90;87.00
38183;DHT22;23991;52.430;10.586;2023-04-29T02:01:35;12.90;87.00
38183;DHT22;23991;52.430;10.586;2023-04-29T02:04:01;12.90;87.00
38183;DHT22;23991;52.430;10.586;2023-04-29T02:06:27;12.90;87.00
38183;DHT22;23991;52.430;10.586;2023-04-29T02:08:52;12.80;87.10
38183;DHT22;23991;52.430;10.586;2023-04-29T02:11:18;12.80;87.30
38183;DHT22;23991;52.430;10.586;2023-04-29T02:13:43;12.80;87.40
38183;DHT22;23991;52.430;10.586;2023-04-29T02:16:11;12.80;87.50
38183;DHT22;23991;52.430;10.586;2023-04-29T02:18:37;12.80;87.40
38183;DHT22;23991;52.430;10.586;2023-04-29T02:21:03;12.80;87.40
38183;DHT22;23991;52.430;10.586;2023-04-29T02:23:28;12.80;87.40
38183;DHT22;23991;52.430;10.586;2023-04-29T02:25:54;12.80;87.50
38183;DHT22;23991;52.430;10.586;2023-04-29T02:28:20;12.80;87.60
38183;DHT22;23991;52.430;10.586;2023-04-29T02:30:48;12.80;87.40
38183;DHT22;23991;52.430;10.586;2023-04-29T02:33:14;12.70;87.50
38183;DHT22;23991;52.430;10.586;2023-04-29T02:35:39;12.70;87.50
38183;DHT22;23991;52.430;10.586;2023-04-29T02:38:05;12.60;87.50
38183;DHT22;23991;52.430;10.586;2023-04-29T02:40:30;12.70;87.50
38183;DHT22;23991;52.430;10.586;2023-04-29T02:42:56;12.70;87.40
38183;DHT22;23991;52.430;10.586;2023-04-29T02:45:21;12.70;87.30
38183;DHT22;23991;52.430;10.586;2023-04-29T02:47:47;12.70;87.10
38183;DHT22;23991;52.430;10.586;2023-04-29T02:50:13;12.70;87.10
38183;DHT22;23991;52.430;10.586;2023-04-29T02:52:38;12.60;86.90
38183;DHT22;23991;52.430;10.586;2023-04-29T02:55:06;12.60;86.60
38183;DHT22;23991;52.430;10.586;2023-04-29T02:57:32;12.60;86.70
38183;DHT22;23991;52.430;10.586;2023-04-29T02:59:58;12.60;86.50
38183;DHT22;23991;52.430;10.586;2023-04-29T03:02:23;12.60;86.50
38183;DHT22;23991;52.430;10.586;2023-04-29T03:04:49;12.50;86.40
38183;DHT22;23991;52.430;10.586;2023-04-29T03:07:14;12.60;86.30
38183;DHT22;23991;52.430;10.586;2023-04-29T03:09:41;12.60;86.10
38183;DHT22;23991;52.430;10.586;2023-04-29T03:12:07;12.60;86.10
38183;DHT22;23991;52.430;10.586;2023-04-29T03:14:32;12.60;86.00
38183;DHT22;23991;52.430;10.586;2023-04-29T03:16:58;12.50;86.00
38183;DHT22;23991;52.430;10.586;2023-04-29T03:19:23;12.50;86.00
38183;DHT22;23991;52.430;10.586;2023-04-29T03:21:49;12.50;85.80
38183;DHT22;23991;52.430;10.586;2023-04-29T03:24:14;12.50;85.80
38183;DHT22;23991;52.430;10.586;2023-04-29T03:26:40;12.50;85.90
38183;DHT22;23991;52.430;10.586;2023-04-29T03:29:07;12.50;85.90
38183;DHT22;23991;52.430;10.586;2023-04-29T03:31:33;12.40;85.80
38183;DHT22;23991;52.430;10.586;2023-04-29T03:33:59;12.40;85.90
38183;DHT22;23991;52.430;10.586;2023-04-29T03:36:24;12.40;85.80
38183;DHT22;23991;52.430;10.586;2023-04-29T03:38:50;12.40;85.70
38183;DHT22;23991;52.430;10.586;2023-04-29T03:41:16;12.40;85.60
38183;DHT22;23991;52.430;10.586;2023-04-29T03:43:41;12.30;85.30
38183;DHT22;23991;52.430;10.586;2023-04-29T03:46:08;12.30;84.80
38183;DHT22;23991;52.430;10.586;2023-04-29T03:48:34;12.30;84.60
38183;DHT22;23991;52.430;10.586;2023-04-29T03:51:00;12.30;84.90
38183;DHT22;23991;52.430;10.586;2023-04-29T03:53:25;12.30;84.90
38183;DHT22;23991;52.430;10.586;2023-04-29T03:55:51;12.20;84.80
38183;DHT22;23991;52.430;10.586;2023-04-29T03:58:16;12.10;85.20
38183;DHT22;23991;52.430;10.586;2023-04-29T04:00:42;12.10;85.20
38183;DHT22;23991;52.430;10.586;2023-04-29T04:03:07;12.10;85.00
38183;DHT22;23991;52.430;10.586;2023-04-29T04:05:33;12.10;85.10
38183;DHT22;23991;52.430;10.586;2023-04-29T04:07:58;12.00;85.00
38183;DHT22;23991;52.430;10.586;2023-04-29T04:10:25;12.10;84.90
38183;DHT22;23991;52.430;10.586;2023-04-29T04:12:50;12.10;84.90
38183;DHT22;23991;52.430;10.586;2023-04-29T04:15:16;12.00;84.50
38183;DHT22;23991;52.430;10.586;2023-04-29T04:17:42;12.00;84.10
38183;DHT22;23991;52.430;10.586;2023-04-29T04:20:08;11.90;83.90
38183;DHT22;23991;52.430;10.586;2023-04-29T04:22:33;11.90;84.00
38183;DHT22;23991;52.430;10.586;2023-04-29T04:24:59;11.90;84.20
38183;DHT22;23991;52.430;10.586;2023-04-29T04:27:24;11.90;84.10
38183;DHT22;23991;52.430;10.586;2023-04-29T04:29:53;11.90;84.20
38183;DHT22;23991;52.430;10.586;2023-04-29T04:32:22;11.90;84.30
38183;DHT22;23991;52.430;10.586;2023-04-29T04:34:49;11.90;84.60
38183;DHT22;23991;52.430;10.586;2023-04-29T04:37:15;12.00;84.00
38183;DHT22;23991;52.430;10.586;2023-04-29T04:39:40;11.90;84.20
38183;DHT22;23991;52.430;10.586;2023-04-29T04:42:06;11.90;84.00
38183;DHT22;23991;52.430;10.586;2023-04-29T04:44:31;12.00;84.00
38183;DHT22;23991;52.430;10.586;2023-04-29T04:46:58;12.00;84.00
38183;DHT22;23991;52.430;10.586;2023-04-29T04:49:25;12.00;83.80
38183;DHT22;23991;52.430;10.586;2023-04-29T04:51:51;12.10;83.50
38183;DHT22;23991;52.430;10.586;2023-04-29T04:54:17;12.10;82.90
38183;DHT22;23991;52.430;10.586;2023-04-29T04:56:42;12.20;82.70
38183;DHT22;23991;52.430;10.586;2023-04-29T04:59:08;12.20;82.50
38183;DHT22;23991;52.430;10.586;2023-04-29T05:01:33;12.30;82.20
38183;DHT22;23991;52.430;10.586;2023-04-29T05:03:59;12.30;82.00
38183;DHT22;23991;52.430;10.586;2023-04-29T05:06:25;12.40;81.70
38183;DHT22;23991;52.430;10.586;2023-04-29T05:08:50;12.40;80.90
38183;DHT22;23991;52.430;10.586;2023-04-29T05:11:17;12.50;80.20
38183;DHT22;23991;52.430;10.586;2023-04-29T05:13:43;12.40;79.90
38183;DHT22;23991;52.430;10.586;2023-04-29T05:16:08;12.40;79.70
38183;DHT22;23991;52.430;10.586;2023-04-29T05:18:34;12.40;79.80
38183;DHT22;23991;52.430;10.586;2023-04-29T05:20:59;12.40;79.60
38183;DHT22;23991;52.430;10.586;2023-04-29T05:23:25;12.40;79.20
38183;DHT22;23991;52.430;10.586;2023-04-29T05:25:51;12.40;79.10
38183;DHT22;23991;52.430;10.586;2023-04-29T05:28:16;12.50;79.20
38183;DHT22;23991;52.430;10.586;2023-04-29T05:30:42;12.50;78.70
38183;DHT22;23991;52.430;10.586;2023-04-29T05:33:08;12.60;78.40
38183;DHT22;23991;52.430;10.586;2023-04-29T05:35:33;12.60;78.50
38183;DHT22;23991;52.430;10.586;2023-04-29T05:37:59;12.70;78.40
38183;DHT22;23991;52.430;10.586;2023-04-29T05:40:24;12.80;78.30
38183;DHT22;23991;52.430;10.586;2023-04-29T05:42:50;12.80;77.50
38183;DHT22;23991;52.430;10.586;2023-04-29T05:45:16;12.80;77.20
38183;DHT22;23991;52.430;10.586;2023-04-29T05:47:41;12.80;77.40
38183;DHT22;23991;52.430;10.586;2023-04-29T05:50:07;12.80;77.50
38183;DHT22;23991;52.430;10.586;2023-04-29T05:52:33;12.80;76.90
38183;DHT22;23991;52.430;10.586;2023-04-29T05:54:58;12.80;76.90
38183;DHT22;23991;52.430;10.586;2023-04-29T05:57:23;12.90;76.50
38183;DHT22;23991;52.430;10.586;2023-04-29T05:59:49;12.70;76.50
38183;DHT22;23991;52.430;10.586;2023-04-29T06:02:15;12.80;76.60
38183;DHT22;23991;52.430;10.586;2023-04-29T06:04:40;12.90;76.70
38183;DHT22;23991;52.430;10.586;2023-04-29T06:07:06;13.00;76.20
38183;DHT22;23991;52.430;10.586;2023-04-29T06:09:34;13.00;76.10
38183;DHT22;23991;52.430;10.586;2023-04-29T06:12:00;13.00;76.20
38183;DHT22;23991;52.430;10.586;2023-04-29T06:14:26;13.10;75.70
38183;DHT22;23991;52.430;10.586;2023-04-29T06:16:51;13.30;75.50
38183;DHT22;23991;52.430;10.586;2023-04-29T06:19:18;13.30;75.00
38183;DHT22;23991;52.430;10.586;2023-04-29T06:21:46;13.40;75.00
38183;DHT22;23991;52.430;10.586;2023-04-29T06:24:11;13.40;74.80
38183;DHT22;23991;52.430;10.586;2023-04-29T06:26:37;13.50;74.40
38183;DHT22;23991;52.430;10.586;2023-04-29T06:29:02;13.50;73.80
38183;DHT22;23991;52.430;10.586;2023-04-29T06:31:28;13.60;73.70
38183;DHT22;23991;52.430;10.586;2023-04-29T06:33:53;13.60;73.60
38183;DHT22;23991;52.430;10.586;2023-04-29T06:36:19;13.60;74.00
38183;DHT22;23991;52.430;10.586;2023-04-29T06:38:44;13.60;73.60
38183;DHT22;23991;52.430;10.586;2023-04-29T06:41:10;13.70;73.50
38183;DHT22;23991;52.430;10.586;2023-04-29T06:43:36;13.80;73.30
38183;DHT22;23991;52.430;10.586;2023-04-29T06:46:01;13.80;73.10
38183;DHT22;23991;52.430;10.586;2023-04-29T06:48:27;13.80;73.20
38183;DHT22;23991;52.430;10.586;2023-04-29T06:50:55;13.90;72.80
38183;DHT22;23991;52.430;10.586;2023-04-29T06:53:21;13.90;72.30
38183;DHT22;23991;52.430;10.586;2023-04-29T06:55:47;13.90;72.30
38183;DHT22;23991;52.430;10.586;2023-04-29T06:58:16;13.90;72.00
38183;DHT22;23991;52.430;10.586;2023-04-29T07:00:46;14.00;72.10
38183;DHT22;23991;52.430;10.586;2023-04-29T07:03:13;14.00;72.10
38183;DHT22;23991;52.430;10.586;2023-04-29T07:05:39;14.10;71.80
38183;DHT22;23991;52.430;10.586;2023-04-29T07:08:09;14.10;71.40
38183;DHT22;23991;52.430;10.586;2023-04-29T07:10:34;14.10;70.60
38183;DHT22;23991;52.430;10.586;2023-04-29T07:13:00;14.10;71.00
38183;DHT22;23991;52.430;10.586;2023-04-29T07:15:27;14.20;71.30
38183;DHT22;23991;52.430;10.586;2023-04-29T07:17:52;14.40;70.30
38183;DHT22;23991;52.430;10.586;2023-04-29T07:20:18;14.40;69.80
38183;DHT22;23991;52.430;10.586;2023-04-29T07:22:44;14.50;69.00
38183;DHT22;23991;52.430;10.586;2023-04-29T07:25:09;14.60;68.80
38183;DHT22;23991;52.430;10.586;2023-04-29T07:27:35;14.70;68.50
38183;DHT22;23991;52.430;10.586;2023-04-29T07:30:01;14.60;68.50
38183;DHT22;23991;52.430;10.586;2023-04-29T07:32:27;14.60;68.30
38183;DHT22;23991;52.430;10.586;2023-04-29T07:34:53;14.80;67.60
38183;DHT22;23991;52.430;10.586;2023-04-29T07:37:18;14.80;67.20
38183;DHT22;23991;52.430;10.586;2023-04-29T07:39:44;14.90;66.90
38183;DHT22;23991;52.430;10.586;2023-04-29T07:42:10;15.10;66.50
38183;DHT22;23991;52.430;10.586;2023-04-29T07:44:35;15.20;65.80
38183;DHT22;23991;52.430;10.586;2023-04-29T07:47:01;15.10;66.20
38183;DHT22;23991;52.430;10.586;2023-04-29T07:49:27;15.20;66.50
38183;DHT22;23991;52.430;10.586;2023-04-29T07:51:52;15.40;66.20
38183;DHT22;23991;52.430;10.586;2023-04-29T07:54:17;15.60;65.80
38183;DHT22;23991;52.430;10.586;2023-04-29T07:56:46;15.80;64.60
38183;DHT22;23991;52.430;10.586;2023-04-29T07:59:12;15.80;63.90
38183;DHT22;23991;52.430;10.586;2023-04-29T08:01:39;15.90;64.00
38183;DHT22;23991;52.430;10.586;2023-04-29T08:04:05;16.20;63.50
38183;DHT22;23991;52.430;10.586;2023-04-29T08:06:31;16.20;62.80
38183;DHT22;23991;52.430;10.586;2023-04-29T08:08:57;16.30;62.00
38183;DHT22;23991;52.430;10.586;2023-04-29T08:11:22;16.30;62.10
38183;DHT22;23991;52.430;10.586;2023-04-29T08:13:49;16.20;61.70
38183;DHT22;23991;52.430;10.586;2023-04-29T08:16:15;16.30;61.90
38183;DHT22;23991;52.430;10.586;2023-04-29T08:18:41;16.40;61.20
38183;DHT22;23991;52.430;10.586;2023-04-29T08:21:07;16.70;60.40
38183;DHT22;23991;52.430;10.586;2023-04-29T08:23:33;16.90;60.30
38183;DHT22;23991;52.430;10.586;2023-04-29T08:25:59;17.20;59.50
38183;DHT22;23991;52.430;10.586;2023-04-29T08:28:25;17.60;59.00
38183;DHT22;23991;52.430;10.586;2023-04-29T08:30:51;18.20;56.60
38183;DHT22;23991;52.430;10.586;2023-04-29T08:33:17;18.60;55.10
38183;DHT22;23991;52.430;10.586;2023-04-29T08:35:43;19.00;52.40
38183;DHT22;23991;52.430;10.586;2023-04-29T08:38:08;19.30;51.40
38183;DHT22;23991;52.430;10.586;2023-04-29T08:40:44;19.70;50.20
38183;DHT22;23991;52.430;10.586;2023-04-29T08:43:12;19.40;49.90
38183;DHT22;23991;52.430;10.586;2023-04-29T08:45:38;19.40;49.10
38183;DHT22;23991;52.430;10.586;2023-04-29T08:48:06;19.50;49.90
38183;DHT22;23991;52.430;10.586;2023-04-29T08:50:37;20.00;49.40
38183;DHT22;23991;52.430;10.586;2023-04-29T08:53:04;20.60;48.10
38183;DHT22;23991;52.430;10.586;2023-04-29T08:55:30;20.80;47.30
38183;DHT22;23991;52.430;10.586;2023-04-29T08:57:58;21.00;46.90
38183;DHT22;23991;52.430;10.586;2023-04-29T09:00:25;21.00;46.00
38183;DHT22;23991;52.430;10.586;2023-04-29T09:02:53;20.70;46.50
38183;DHT22;23991;52.430;10.586;2023-04-29T09:05:20;20.40;46.00
38183;DHT22;23991;52.430;10.586;2023-04-29T09:07:47;20.40;46.60
38183;DHT22;23991;52.430;10.586;2023-04-29T09:10:13;20.30;47.50
38183;DHT22;23991;52.430;10.586;2023-04-29T09:12:40;20.30;47.10
38183;DHT22;23991;52.430;10.586;2023-04-29T09:15:06;20.30;47.50
38183;DHT22;23991;52.430;10.586;2023-04-29T09:17:42;20.00;47.80
38183;DHT22;23991;52.430;10.586;2023-04-29T09:22:47;20.00;47.50
38183;DHT22;23991;52.430;10.586;2023-04-29T09:25:13;20.20;46.90
38183;DHT22;23991;52.430;10.586;2023-04-29T09:27:39;20.30;46.20
38183;DHT22;23991;52.430;10.586;2023-04-29T09:30:05;20.50;46.00
38183;DHT22;23991;52.430;10.586;2023-04-29T09:32:31;20.50;44.50
38183;DHT22;23991;52.430;10.586;2023-04-29T09:34:56;20.70;44.70
38183;DHT22;23991;52.430;10.586;2023-04-29T09:37:26;21.10;43.80
38183;DHT22;23991;52.430;10.586;2023-04-29T09:39:53;21.70;43.10
38183;DHT22;23991;52.430;10.586;2023-04-29T09:42:18;22.10;42.70
38183;DHT22;23991;52.430;10.586;2023-04-29T09:44:44;22.20;41.70
38183;DHT22;23991;52.430;10.586;2023-04-29T09:47:10;22.20;40.80
38183;DHT22;23991;52.430;10.586;2023-04-29T09:49:41;22.00;40.90
38183;DHT22;23991;52.430;10.586;2023-04-29T09:52:11;22.20;40.40
38183;DHT22;23991;52.430;10.586;2023-04-29T09:54:38;22.70;39.80
38183;DHT22;23991;52.430;10.586;2023-04-29T09:57:06;23.00;39.40
38183;DHT22;23991;52.430;10.586;2023-04-29T09:59:34;23.40;38.20
38183;DHT22;23991;52.430;10.586;2023-04-29T10:02:01;24.00;37.80
38183;DHT22;23991;52.430;10.586;2023-04-29T10:04:28;24.40;36.00
38183;DHT22;23991;52.430;10.586;2023-04-29T10:06:56;25.00;34.80
38183;DHT22;23991;52.430;10.586;2023-04-29T10:09:23;25.90;34.70
38183;DHT22;23991;52.430;10.586;2023-04-29T10:11:52;26.60;33.40
38183;DHT22;23991;52.430;10.586;2023-04-29T10:14:22;26.30;32.80
38183;DHT22;23991;52.430;10.586;2023-04-29T10:17:02;25.80;33.20
38183;DHT22;23991;52.430;10.586;2023-04-29T10:19:38;25.20;33.70
38183;DHT22;23991;52.430;10.586;2023-04-29T10:22:08;25.20;33.80
38183;DHT22;23991;52.430;10.586;2023-04-29T10:24:38;24.70;34.60
38183;DHT22;23991;52.430;10.586;2023-04-29T10:27:06;24.40;35.40
38183;DHT22;23991;52.430;10.586;2023-04-29T10:29:33;24.40;35.80
38183;DHT22;23991;52.430;10.586;2023-04-29T10:32:01;24.40;36.00
38183;DHT22;23991;52.430;10.586;2023-04-29T10:34:28;24.50;36.00
38183;DHT22;23991;52.430;10.586;2023-04-29T10:36:54;24.10;36.70
38183;DHT22;23991;52.430;10.586;2023-04-29T10:39:33;23.50;36.90
38183;DHT22;23991;52.430;10.586;2023-04-29T10:42:01;22.80;37.50
38183;DHT22;23991;52.430;10.586;2023-04-29T10:44:30;22.80;38.30
38183;DHT22;23991;52.430;10.586;2023-04-29T10:47:17;22.90;38.00
38183;DHT22;23991;52.430;10.586;2023-04-29T10:50:01;22.90;38.30
38183;DHT22;23991;52.430;10.586;2023-04-29T10:52:26;22.90;38.50
38183;DHT22;23991;52.430;10.586;2023-04-29T10:55:02;23.30;37.50
38183;DHT22;23991;52.430;10.586;2023-04-29T10:57:29;23.40;37.10
38183;DHT22;23991;52.430;10.586;2023-04-29T10:59:54;23.60;36.50
38183;DHT22;23991;52.430;10.586;2023-04-29T11:02:20;23.70;36.00
38183;DHT22;23991;52.430;10.586;2023-04-29T11:05:05;24.00;35.90
38183;DHT22;23991;52.430;10.586;2023-04-29T11:07:31;24.10;35.80
38183;DHT22;23991;52.430;10.586;2023-04-29T11:09:57;24.10;36.00
38183;DHT22;23991;52.430;10.586;2023-04-29T11:12:22;24.10;35.10
38183;DHT22;23991;52.430;10.586;2023-04-29T11:14:51;23.70;35.80
38183;DHT22;23991;52.430;10.586;2023-04-29T11:17:17;23.30;36.10
38183;DHT22;23991;52.430;10.586;2023-04-29T11:19:50;23.20;36.40
38183;DHT22;23991;52.430;10.586;2023-04-29T11:27:15;23.10;36.30
38183;DHT22;23991;52.430;10.586;2023-04-29T11:29:40;23.50;36.00
38183;DHT22;23991;52.430;10.586;2023-04-29T11:32:06;23.80;35.90
38183;DHT22;23991;52.430;10.586;2023-04-29T11:34:32;24.00;34.80
38183;DHT22;23991;52.430;10.586;2023-04-29T11:36:58;23.70;34.30
38183;DHT22;23991;52.430;10.586;2023-04-29T11:39:26;23.70;34.40
38183;DHT22;23991;52.430;10.586;2023-04-29T11:41:51;23.60;34.40
38183;DHT22;23991;52.430;10.586;2023-04-29T11:44:20;23.30;35.30
38183;DHT22;23991;52.430;10.586;2023-04-29T11:46:47;23.20;35.40
38183;DHT22;23991;52.430;10.586;2023-04-29T11:49:13;23.10;35.40
38183;DHT22;23991;52.430;10.586;2023-04-29T11:51:39;22.80;36.90
38183;DHT22;23991;52.430;10.586;2023-04-29T11:54:05;22.80;36.70
38183;DHT22;23991;52.430;10.586;2023-04-29T11:56:31;22.80;36.40
38183;DHT22;23991;52.430;10.586;2023-04-29T11:58:57;23.30;36.30
38183;DHT22;23991;52.430;10.586;2023-04-29T12:01:24;23.60;35.80
38183;DHT22;23991;52.430;10.586;2023-04-29T12:03:50;23.60;35.30
38183;DHT22;23991;52.430;10.586;2023-04-29T12:06:15;23.70;34.20
38183;DHT22;23991;52.430;10.586;2023-04-29T12:08:41;23.80;34.40
38183;DHT22;23991;52.430;10.586;2023-04-29T12:11:06;23.70;34.10
38183;DHT22;23991;52.430;10.586;2023-04-29T12:13:33;23.70;33.60
38183;DHT22;23991;52.430;10.586;2023-04-29T12:16:03;23.90;33.80
38183;DHT22;23991;52.430;10.586;2023-04-29T12:18:30;23.60;34.20
38183;DHT22;23991;52.430;10.586;2023-04-29T12:20:56;23.80;34.10
38183;DHT22;23991;52.430;10.586;2023-04-29T12:23:23;23.70;33.00
38183;DHT22;23991;52.430;10.586;2023-04-29T12:25:53;23.40;33.90
38183;DHT22;23991;52.430;10.586;2023-04-29T12:28:20;23.30;34.00
38183;DHT22;23991;52.430;10.586;2023-04-29T12:30:46;23.30;33.90
38183;DHT22;23991;52.430;10.586;2023-04-29T12:33:27;23.10;34.50
38183;DHT22;23991;52.430;10.586;2023-04-29T12:35:56;23.30;34.10
38183;DHT22;23991;52.430;10.586;2023-04-29T12:38:27;23.50;34.90
38183;DHT22;23991;52.430;10.586;2023-04-29T12:40:54;23.80;35.00
38183;DHT22;23991;52.430;10.586;2023-04-29T12:43:31;23.90;35.20
38183;DHT22;23991;52.430;10.586;2023-04-29T12:46:01;24.10;34.60
38183;DHT22;23991;52.430;10.586;2023-04-29T12:48:35;24.00;33.80
38183;DHT22;23991;52.430;10.586;2023-04-29T12:51:08;24.10;34.40
38183;DHT22;23991;52.430;10.586;2023-04-29T12:53:34;23.50;34.80
38183;DHT22;23991;52.430;10.586;2023-04-29T12:56:00;23.50;34.70
38183;DHT22;23991;52.430;10.586;2023-04-29T12:58:29;23.50;35.40
38183;DHT22;23991;52.430;10.586;2023-04-29T13:00:55;23.30;35.30
38183;DHT22;23991;52.430;10.586;2023-04-29T13:03:21;23.30;35.40
38183;DHT22;23991;52.430;10.586;2023-04-29T13:05:46;23.30;35.70
38183;DHT22;23991;52.430;10.586;2023-04-29T13:08:15;23.40;35.10
38183;DHT22;23991;52.430;10.586;2023-04-29T13:10:41;22.90;35.90
38183;DHT22;23991;52.430;10.586;2023-04-29T13:13:07;22.90;35.80
38183;DHT22;23991;52.430;10.586;2023-04-29T13:15:34;22.80;36.20
38183;DHT22;23991;52.430;10.586;2023-04-29T13:18:00;22.80;36.80
38183;DHT22;23991;52.430;10.586;2023-04-29T13:20:26;23.00;36.40
38183;DHT22;23991;52.430;10.586;2023-04-29T13:22:52;23.20;36.50
38183;DHT22;23991;52.430;10.586;2023-04-29T13:25:17;23.30;36.10
38183;DHT22;23991;52.430;10.586;2023-04-29T13:27:43;23.60;35.20
38183;DHT22;23991;52.430;10.586;2023-04-29T13:30:09;23.80;35.10
38183;DHT22;23991;52.430;10.586;2023-04-29T13:32:35;23.90;35.20
38183;DHT22;23991;52.430;10.586;2023-04-29T13:35:00;24.00;34.70
38183;DHT22;23991;52.430;10.586;2023-04-29T13:37:26;23.70;35.70
38183;DHT22;23991;52.430;10.586;2023-04-29T13:39:51;23.70;34.90
38183;DHT22;23991;52.430;10.586;2023-04-29T13:42:17;23.80;34.80
38183;DHT22;23991;52.430;10.586;2023-04-29T13:44:42;23.80;34.80
38183;DHT22;23991;52.430;10.586;2023-04-29T13:47:12;23.70;34.80
38183;DHT22;23991;52.430;10.586;2023-04-29T13:49:40;23.70;34.90
38183;DHT22;23991;52.430;10.586;2023-04-29T13:52:09;23.70;34.90
38183;DHT22;23991;52.430;10.586;2023-04-29T13:54:34;23.80;34.70
38183;DHT22;23991;52.430;10.586;2023-04-29T13:57:00;23.80;34.90
38183;DHT22;23991;52.430;10.586;2023-04-29T13:59:33;23.80;34.80
38183;DHT22;23991;52.430;10.586;2023-04-29T14:01:59;23.60;34.70
38183;DHT22;23991;52.430;10.586;2023-04-29T14:04:25;23.50;35.10
38183;DHT22;23991;52.430;10.586;2023-04-29T14:06:51;23.60;34.40
38183;DHT22;23991;52.430;10.586;2023-04-29T14:09:17;23.60;35.10
38183;DHT22;23991;52.430;10.586;2023-04-29T14:11:44;23.40;35.00
38183;DHT22;23991;52.430;10.586;2023-04-29T14:14:10;23.30;35.00
38183;DHT22;23991;52.430;10.586;2023-04-29T14:16:35;23.20;35.90
38183;DHT22;23991;52.430;10.586;2023-04-29T14:19:01;23.20;35.90
38183;DHT22;23991;52.430;10.586;2023-04-29T14:21:26;23.10;35.50
38183;DHT22;23991;52.430;10.586;2023-04-29T14:23:52;23.20;35.50
38183;DHT22;23991;52.430;10.586;2023-04-29T14:26:18;22.80;35.40
38183;DHT22;23991;52.430;10.586;2023-04-29T14:28:43;22.80;35.60
38183;DHT22;23991;52.430;10.586;2023-04-29T14:31:09;22.80;35.20
38183;DHT22;23991;52.430;10.586;2023-04-29T14:33:38;22.70;36.30
38183;DHT22;23991;52.430;10.586;2023-04-29T14:36:03;22.70;36.00
38183;DHT22;23991;52.430;10.586;2023-04-29T14:38:29;22.50;36.40
38183;DHT22;23991;52.430;10.586;2023-04-29T14:40:55;22.60;36.30
38183;DHT22;23991;52.430;10.586;2023-04-29T14:43:20;22.40;36.50
38183;DHT22;23991;52.430;10.586;2023-04-29T14:45:46;22.20;36.90
38183;DHT22;23991;52.430;10.586;2023-04-29T14:48:11;22.30;37.10
38183;DHT22;23991;52.430;10.586;2023-04-29T14:50:37;22.00;37.80
38183;DHT22;23991;52.430;10.586;2023-04-29T14:53:02;21.90;37.40
38183;DHT22;23991;52.430;10.586;2023-04-29T14:55:28;22.00;37.20
38183;DHT22;23991;52.430;10.586;2023-04-29T14:57:54;22.00;37.20
38183;DHT22;23991;52.430;10.586;2023-04-29T15:00:19;22.10;37.00
38183;DHT22;23991;52.430;10.586;2023-04-29T15:02:45;22.00;37.50
38183;DHT22;23991;52.430;10.586;2023-04-29T15:05:11;22.00;37.20
38183;DHT22;23991;52.430;10.586;2023-04-29T15:07:37;22.00;37.00
38183;DHT22;23991;52.430;10.586;2023-04-29T15:10:02;22.00;37.00
38183;DHT22;23991;52.430;10.586;2023-04-29T15:12:30;22.00;36.90
38183;DHT22;23991;52.430;10.586;2023-04-29T15:14:56;22.00;37.00
38183;DHT22;23991;52.430;10.586;2023-04-29T15:17:21;21.90;36.90
38183;DHT22;23991;52.430;10.586;2023-04-29T15:19:47;21.80;36.90
38183;DHT22;23991;52.430;10.586;2023-04-29T15:22:12;21.70;37.60
38183;DHT22;23991;52.430;10.586;2023-04-29T15:24:38;21.60;38.70